Time;durP1;ratioP1;P1;durP2;ratioP2;P2;SDS_P1;SDS_P2;PMS_P1;PMS_P2;Temp;Humidity;BMP_temperature;BMP_pressure;BME280_temperature;BME280_humidity;BME280_pressure;Samples;Min_cycle;Max_cycle;Signal;HPM_P1;HPM_P2
2023/02/26 00:00:08;;;;;;;14.75;7.55;;;;;;;;;;5032152;28;20155;-66
2023/02/26 00:02:35;;;;;;;15.10;7.70;;;;;;;;;;5032144;28;20028;-66
2023/02/26 00:05:01;;;;;;;16.38;8.02;;;;;;;;;;5046106;28;20458;-66
2023/02/26 00:07:28;;;;;;;15.77;7.93;;;;;;;;;;5079185;23;20045;-61
2023/02/26 00:09:54;;;;;;;15.80;7.97;;;;;;;;;;5072195;28;20036;-62
2023/02/26 00:12:20;;;;;;;15.27;7.88;;;;;;;;;;5054711;28;20103;-60
2023/02/26 00:14:46;;;;;;;16.58;8.57;;;;;;;;;;5054881;28;20020;-57
2023/02/26 00:17:24;;;;;;;17.60;8.68;;;;;;;;;;5073319;28;20090;-62
2023/02/26 00:19:50;;;;;;;15.85;7.60;;;;;;;;;;5055527;28;20108;-61
2023/02/26 00:22:16;;;;;;;14.27;7.93;;;;;;;;;;5073084;28;20020;-63
2023/02/26 00:24:42;;;;;;;14.73;7.65;;;;;;;;;;5072874;28;20086;-61
2023/02/26 00:27:10;;;;;;;14.63;7.70;;;;;;;;;;5073782;28;20032;-62
2023/02/26 00:29:37;;;;;;;16.40;7.60;;;;;;;;;;5073755;28;20028;-61
2023/02/26 00:32:03;;;;;;;14.73;7.40;;;;;;;;;;5073837;28;20074;-62
2023/02/26 00:34:29;;;;;;;14.27;7.38;;;;;;;;;;5073258;28;20029;-63
2023/02/26 00:37:14;;;;;;;15.95;7.60;;;;;;;;;;5055804;28;20028;-61
2023/02/26 00:39:46;;;;;;;18.50;8.43;;;;;;;;;;5056028;28;20059;-62
2023/02/26 00:42:13;;;;;;;15.27;7.60;;;;;;;;;;5073732;28;20469;-61
2023/02/26 00:44:39;;;;;;;16.58;7.95;;;;;;;;;;5072832;28;20036;-60
2023/02/26 00:47:21;;;;;;;17.80;7.57;;;;;;;;;;5073321;28;20028;-63
2023/02/26 00:49:53;;;;;;;16.80;8.10;;;;;;;;;;5073488;28;20025;-61
2023/02/26 00:52:37;;;;;;;17.67;8.32;;;;;;;;;;5073373;28;20031;-61
2023/02/26 00:55:03;;;;;;;15.48;7.47;;;;;;;;;;5072146;28;20078;-62
2023/02/26 00:57:29;;;;;;;14.70;7.32;;;;;;;;;;5055462;28;20028;-61
2023/02/26 00:59:55;;;;;;;18.77;8.88;;;;;;;;;;5073530;28;20024;-61
2023/02/26 01:02:21;;;;;;;16.95;7.32;;;;;;;;;;5073180;28;20392;-62
2023/02/26 01:04:47;;;;;;;19.05;7.88;;;;;;;;;;5054567;28;20071;-61
2023/02/26 01:07:14;;;;;;;14.05;7.38;;;;;;;;;;5054655;28;20033;-62
2023/02/26 01:09:40;;;;;;;12.88;7.40;;;;;;;;;;5073018;28;20033;-62
2023/02/26 01:12:08;;;;;;;15.60;8.00;;;;;;;;;;5073107;28;20178;-59
2023/02/26 01:14:34;;;;;;;14.57;7.50;;;;;;;;;;5072374;28;20346;-61
2023/02/26 01:17:00;;;;;;;15.48;7.55;;;;;;;;;;5056048;28;20024;-62
2023/02/26 01:19:29;;;;;;;13.60;7.13;;;;;;;;;;5073264;28;20492;-62
2023/02/26 01:22:12;;;;;;;14.13;7.53;;;;;;;;;;5073236;28;20067;-62
2023/02/26 01:24:38;;;;;;;12.63;6.97;;;;;;;;;;5072414;28;20496;-64
2023/02/26 01:27:04;;;;;;;15.20;7.28;;;;;;;;;;5055039;28;20477;-63
2023/02/26 01:29:30;;;;;;;13.90;7.50;;;;;;;;;;5072908;28;20095;-62
2023/02/26 01:32:02;;;;;;;15.75;7.90;;;;;;;;;;5055143;28;20032;-62
2023/02/26 01:34:34;;;;;;;14.25;7.40;;;;;;;;;;5054837;28;20016;-62
2023/02/26 01:37:10;;;;;;;15.50;7.40;;;;;;;;;;5055028;28;20020;-63
2023/02/26 01:39:42;;;;;;;14.25;7.60;;;;;;;;;;5054929;28;20048;-63
2023/02/26 01:42:11;;;;;;;14.70;7.68;;;;;;;;;;5054971;28;20036;-63
2023/02/26 01:44:40;;;;;;;15.30;7.80;;;;;;;;;;5071917;28;20488;-62
2023/02/26 01:47:09;;;;;;;15.98;8.10;;;;;;;;;;5054732;28;20028;-61
2023/02/26 01:49:35;;;;;;;18.70;8.68;;;;;;;;;;5060228;28;20673;-60
2023/02/26 01:52:02;;;;;;;17.83;7.30;;;;;;;;;;5032834;28;20017;-62
2023/02/26 01:54:30;;;;;;;17.90;8.95;;;;;;;;;;5054065;28;20021;-63
2023/02/26 01:56:59;;;;;;;15.43;7.93;;;;;;;;;;5066666;28;20059;-62
2023/02/26 01:59:25;;;;;;;14.40;7.95;;;;;;;;;;5065314;28;20402;-62
2023/02/26 02:01:55;;;;;;;15.60;7.80;;;;;;;;;;5063780;28;20119;-59
2023/02/26 02:04:22;;;;;;;16.15;8.10;;;;;;;;;;5053008;28;20431;-61
2023/02/26 02:06:49;;;;;;;15.27;7.80;;;;;;;;;;5053435;28;20028;-62
2023/02/26 02:09:15;;;;;;;15.07;7.38;;;;;;;;;;5072417;28;20028;-62
2023/02/26 02:12:01;;;;;;;14.98;7.90;;;;;;;;;;5054141;28;20400;-59
2023/02/26 02:14:50;;;;;;;15.20;7.70;;;;;;;;;;5046096;28;20021;-62
2023/02/26 02:17:35;;;;;;;15.25;8.15;;;;;;;;;;5031724;28;20164;-61
2023/02/26 02:20:14;;;;;;;14.57;7.80;;;;;;;;;;5014455;28;20037;-62
2023/02/26 02:22:47;;;;;;;15.30;8.15;;;;;;;;;;5032108;28;20045;-61
2023/02/26 02:25:13;;;;;;;14.63;7.95;;;;;;;;;;5040426;28;20033;-60
2023/02/26 02:27:38;;;;;;;14.20;7.45;;;;;;;;;;5068137;28;20025;-62
2023/02/26 02:30:23;;;;;;;14.90;8.52;;;;;;;;;;5054102;28;20031;-60
2023/02/26 02:32:51;;;;;;;20.65;8.82;;;;;;;;;;5071881;28;20544;-62
2023/02/26 02:35:26;;;;;;;15.57;7.40;;;;;;;;;;5071357;28;20079;-63
2023/02/26 02:37:58;;;;;;;14.48;7.40;;;;;;;;;;5053991;28;20532;-62
2023/02/26 02:40:30;;;;;;;14.20;7.80;;;;;;;;;;5072009;28;20028;-62
2023/02/26 02:42:59;;;;;;;15.25;7.45;;;;;;;;;;5053849;28;20123;-64
2023/02/26 02:45:25;;;;;;;17.63;7.78;;;;;;;;;;5071208;28;20024;-63
2023/02/26 02:47:57;;;;;;;14.43;7.70;;;;;;;;;;5053729;28;20082;-62
2023/02/26 02:50:30;;;;;;;15.45;7.80;;;;;;;;;;5071669;28;20545;-62
2023/02/26 02:52:58;;;;;;;14.73;7.65;;;;;;;;;;5071671;28;20554;-62
2023/02/26 02:55:26;;;;;;;15.32;8.30;;;;;;;;;;5071212;28;20388;-63
2023/02/26 02:57:59;;;;;;;13.98;7.80;;;;;;;;;;5071523;28;20021;-62
2023/02/26 03:00:26;;;;;;;16.10;8.18;;;;;;;;;;5071782;28;20480;-64
2023/02/26 03:03:10;;;;;;;14.82;7.50;;;;;;;;;;5052581;28;20029;-60
2023/02/26 03:05:37;;;;;;;14.90;7.70;;;;;;;;;;5071179;28;20033;-59
2023/02/26 03:08:06;;;;;;;16.77;8.15;;;;;;;;;;5053702;28;20078;-62
2023/02/26 03:10:33;;;;;;;14.73;7.70;;;;;;;;;;5071288;28;20029;-62
2023/02/26 03:12:59;;;;;;;14.90;8.13;;;;;;;;;;5071254;28;20047;-62
2023/02/26 03:15:35;;;;;;;14.70;8.52;;;;;;;;;;5053121;28;20017;-61
2023/02/26 03:18:21;;;;;;;16.42;8.10;;;;;;;;;;5073696;28;20029;-62
2023/02/26 03:21:06;;;;;;;14.27;7.88;;;;;;;;;;5075047;28;20039;-63
2023/02/26 03:23:39;;;;;;;16.10;7.72;;;;;;;;;;5074440;28;20063;-62
2023/02/26 03:26:07;;;;;;;16.40;7.38;;;;;;;;;;5074863;28;20397;-60
2023/02/26 03:28:33;;;;;;;14.48;7.90;;;;;;;;;;5074985;28;20021;-63
2023/02/26 03:30:59;;;;;;;16.48;7.63;;;;;;;;;;5057089;28;20361;-61
2023/02/26 03:33:49;;;;;;;17.85;9.25;;;;;;;;;;5074144;28;20063;-62
2023/02/26 03:36:28;;;;;;;17.25;7.53;;;;;;;;;;5074793;28;20158;-61
2023/02/26 03:38:57;;;;;;;15.95;7.70;;;;;;;;;;5074934;28;20035;-61
2023/02/26 03:41:59;;;;;;;14.25;7.85;;;;;;;;;;5075279;28;20025;-62
2023/02/26 03:44:25;;;;;;;13.20;7.13;;;;;;;;;;4973144;28;20031;-60
2023/02/26 03:46:56;;;;;;;17.02;7.70;;;;;;;;;;5054927;28;20519;-62
2023/02/26 03:49:37;;;;;;;16.60;7.75;;;;;;;;;;5074613;28;20503;-62
2023/02/26 03:52:04;;;;;;;14.55;7.70;;;;;;;;;;5056929;28;20063;-63
2023/02/26 03:54:35;;;;;;;14.93;7.50;;;;;;;;;;5055774;28;20031;-63
2023/02/26 03:57:01;;;;;;;15.70;7.63;;;;;;;;;;5056393;28;20021;-61
2023/02/26 03:59:27;;;;;;;13.80;7.70;;;;;;;;;;5074576;28;20115;-62
2023/02/26 04:01:53;;;;;;;15.90;7.53;;;;;;;;;;5056358;28;20119;-62
2023/02/26 04:04:28;;;;;;;16.67;7.47;;;;;;;;;;5054694;28;20504;-63
2023/02/26 04:06:55;;;;;;;14.80;7.70;;;;;;;;;;5058406;28;20051;-62
2023/02/26 04:09:21;;;;;;;15.32;7.55;;;;;;;;;;5044385;28;20029;-63
2023/02/26 04:11:48;;;;;;;14.77;7.82;;;;;;;;;;5044741;28;20025;-62
2023/02/26 04:14:14;;;;;;;16.60;8.18;;;;;;;;;;5041614;28;20021;-62
2023/02/26 04:16:41;;;;;;;17.83;7.60;;;;;;;;;;5061504;28;20485;-64
2023/02/26 04:19:07;;;;;;;17.35;8.23;;;;;;;;;;5074020;28;20103;-62
2023/02/26 04:21:33;;;;;;;14.75;7.75;;;;;;;;;;5074070;28;20048;-61
2023/02/26 04:24:00;;;;;;;14.75;8.00;;;;;;;;;;5055317;28;20659;-63
2023/02/26 04:26:26;;;;;;;14.45;7.60;;;;;;;;;;5056074;28;20111;-63
2023/02/26 04:28:52;;;;;;;14.13;7.53;;;;;;;;;;5073109;28;20024;-61
2023/02/26 04:31:18;;;;;;;15.77;7.40;;;;;;;;;;5073812;28;20028;-61
2023/02/26 04:33:44;;;;;;;16.17;7.82;;;;;;;;;;5073144;28;20028;-63
2023/02/26 04:36:10;;;;;;;13.32;6.93;;;;;;;;;;5055838;28;20088;-62
2023/02/26 04:38:36;;;;;;;14.90;7.30;;;;;;;;;;5074051;28;20019;-60
2023/02/26 04:41:02;;;;;;;14.82;7.85;;;;;;;;;;5055886;28;20029;-63
2023/02/26 04:43:28;;;;;;;15.40;8.50;;;;;;;;;;5073397;28;20070;-61
2023/02/26 04:45:54;;;;;;;13.90;7.10;;;;;;;;;;5073516;28;20484;-62
2023/02/26 04:48:20;;;;;;;16.55;7.68;;;;;;;;;;5073456;28;20419;-61
2023/02/26 04:50:46;;;;;;;15.15;7.28;;;;;;;;;;5073547;28;20032;-62
2023/02/26 04:53:12;;;;;;;12.63;7.13;;;;;;;;;;5072772;28;20686;-62
2023/02/26 04:55:39;;;;;;;16.15;7.57;;;;;;;;;;5055477;28;20127;-60
2023/02/26 04:58:06;;;;;;;16.52;7.43;;;;;;;;;;5073438;28;20027;-61
2023/02/26 05:00:32;;;;;;;16.65;7.35;;;;;;;;;;5055479;28;20029;-61
2023/02/26 05:02:58;;;;;;;13.57;6.65;;;;;;;;;;5071931;28;20388;-62
2023/02/26 05:05:25;;;;;;;14.30;6.90;;;;;;;;;;5072719;28;20032;-62
2023/02/26 05:07:54;;;;;;;14.63;7.60;;;;;;;;;;5055302;28;20032;-62
2023/02/26 05:10:20;;;;;;;13.63;7.38;;;;;;;;;;5073285;28;20052;-62
2023/02/26 05:12:46;;;;;;;15.63;7.63;;;;;;;;;;5073344;28;20021;-62
2023/02/26 05:15:12;;;;;;;14.30;7.60;;;;;;;;;;5072433;28;20074;-62
2023/02/26 05:17:38;;;;;;;15.32;8.07;;;;;;;;;;5055209;28;20032;-62
2023/02/26 05:20:04;;;;;;;14.77;7.78;;;;;;;;;;5073119;28;20032;-61
2023/02/26 05:22:30;;;;;;;16.40;7.50;;;;;;;;;;5073021;28;20028;-63
2023/02/26 05:24:56;;;;;;;15.10;7.47;;;;;;;;;;5054389;28;20370;-62
2023/02/26 05:27:22;;;;;;;14.52;7.60;;;;;;;;;;5055026;28;20021;-62
2023/02/26 05:29:48;;;;;;;14.15;7.47;;;;;;;;;;5073036;28;20354;-62
2023/02/26 05:32:14;;;;;;;15.82;7.70;;;;;;;;;;5073001;28;20107;-63
2023/02/26 05:34:40;;;;;;;13.80;7.68;;;;;;;;;;5054156;28;20024;-60
2023/02/26 05:37:06;;;;;;;15.18;7.57;;;;;;;;;;5054657;28;20143;-59
2023/02/26 05:39:32;;;;;;;21.08;7.75;;;;;;;;;;5055068;28;20024;-62
2023/02/26 05:41:58;;;;;;;14.48;7.95;;;;;;;;;;5072730;28;20032;-62
2023/02/26 05:44:24;;;;;;;16.17;8.15;;;;;;;;;;5053955;28;20039;-61
2023/02/26 05:46:50;;;;;;;16.50;7.40;;;;;;;;;;5054715;28;20032;-61
2023/02/26 05:49:16;;;;;;;15.35;7.93;;;;;;;;;;5072326;28;20020;-61
2023/02/26 05:51:42;;;;;;;15.88;7.95;;;;;;;;;;5072436;28;20028;-62
2023/02/26 05:54:09;;;;;;;15.18;7.70;;;;;;;;;;5071657;28;20029;-61
2023/02/26 05:56:35;;;;;;;15.13;7.78;;;;;;;;;;5054467;28;20062;-60
2023/02/26 05:59:01;;;;;;;13.57;7.50;;;;;;;;;;5072617;28;20024;-62
2023/02/26 06:01:27;;;;;;;16.60;8.55;;;;;;;;;;5056304;28;20124;-61
2023/02/26 06:03:53;;;;;;;14.93;8.02;;;;;;;;;;5071742;28;20062;-62
2023/02/26 06:08:55;;;;;;;13.90;7.60;;;;;;;;;;5059040;28;20482;-66
2023/02/26 06:11:22;;;;;;;14.98;7.90;;;;;;;;;;5055655;28;20033;-66
2023/02/26 06:13:48;;;;;;;14.20;7.43;;;;;;;;;;5049745;28;20054;-67
2023/02/26 06:16:14;;;;;;;14.95;7.60;;;;;;;;;;5052461;28;20021;-66
2023/02/26 06:18:40;;;;;;;14.73;7.70;;;;;;;;;;5070342;28;20029;-67
2023/02/26 06:21:06;;;;;;;13.27;7.65;;;;;;;;;;5049921;28;20023;-66
2023/02/26 06:23:32;;;;;;;15.13;7.80;;;;;;;;;;5069300;28;20025;-66
2023/02/26 06:25:58;;;;;;;14.18;6.82;;;;;;;;;;5070209;28;20018;-66
2023/02/26 06:28:25;;;;;;;15.75;7.75;;;;;;;;;;5070224;28;20031;-66
2023/02/26 06:30:52;;;;;;;13.85;7.38;;;;;;;;;;5069978;28;20560;-66
2023/02/26 06:33:18;;;;;;;13.57;7.28;;;;;;;;;;5069519;28;20047;-66
2023/02/26 06:35:44;;;;;;;13.93;7.25;;;;;;;;;;5052083;28;20116;-66
2023/02/26 06:38:10;;;;;;;16.00;8.50;;;;;;;;;;5069865;28;20056;-66
2023/02/26 06:40:36;;;;;;;15.50;7.80;;;;;;;;;;5070050;28;20032;-67
2023/02/26 06:43:02;;;;;;;14.43;7.15;;;;;;;;;;5051401;28;20076;-64
2023/02/26 06:45:28;;;;;;;15.30;7.75;;;;;;;;;;5052209;28;20029;-66
2023/02/26 06:47:54;;;;;;;13.20;7.15;;;;;;;;;;5069766;28;20028;-66
2023/02/26 06:50:20;;;;;;;15.88;7.57;;;;;;;;;;5070037;28;20479;-64
2023/02/26 06:52:46;;;;;;;13.85;7.32;;;;;;;;;;5071908;28;20025;-66
2023/02/26 06:55:12;;;;;;;15.27;7.32;;;;;;;;;;5073291;28;20020;-66
2023/02/26 06:57:38;;;;;;;16.92;7.53;;;;;;;;;;5055993;28;20036;-67
2023/02/26 07:00:05;;;;;;;16.98;7.80;;;;;;;;;;5074003;28;20020;-67
2023/02/26 07:02:31;;;;;;;14.70;7.47;;;;;;;;;;5074108;28;20042;-65
2023/02/26 07:04:57;;;;;;;13.73;7.80;;;;;;;;;;5073167;28;20536;-66
2023/02/26 07:07:23;;;;;;;14.45;8.02;;;;;;;;;;5074247;28;20120;-67
2023/02/26 07:09:49;;;;;;;16.95;8.52;;;;;;;;;;5056221;28;20484;-66
2023/02/26 07:12:15;;;;;;;14.27;7.65;;;;;;;;;;5074011;28;20057;-66
2023/02/26 07:14:41;;;;;;;16.00;7.70;;;;;;;;;;5057244;28;20487;-67
2023/02/26 07:17:08;;;;;;;16.30;8.02;;;;;;;;;;5073964;28;20028;-66
2023/02/26 07:19:34;;;;;;;14.80;7.55;;;;;;;;;;5074476;28;20036;-66
2023/02/26 07:22:00;;;;;;;13.60;7.47;;;;;;;;;;5074137;28;20077;-65
2023/02/26 07:24:26;;;;;;;14.60;7.72;;;;;;;;;;5054821;28;20377;-66
2023/02/26 07:26:52;;;;;;;15.77;7.38;;;;;;;;;;5073423;28;20077;-66
2023/02/26 07:29:18;;;;;;;14.65;7.40;;;;;;;;;;5055585;28;20036;-66
2023/02/26 07:31:44;;;;;;;13.20;7.05;;;;;;;;;;5055307;28;20369;-65
2023/02/26 07:34:11;;;;;;;14.98;7.75;;;;;;;;;;5054737;28;20028;-66
2023/02/26 07:36:37;;;;;;;16.35;7.97;;;;;;;;;;5073093;28;20104;-66
2023/02/26 07:39:03;;;;;;;13.55;7.22;;;;;;;;;;5073261;28;20027;-66
2023/02/26 07:41:29;;;;;;;15.23;7.95;;;;;;;;;;5073171;28;20048;-65
2023/02/26 07:43:55;;;;;;;14.13;7.78;;;;;;;;;;5054400;28;20020;-67
2023/02/26 07:46:21;;;;;;;14.88;7.55;;;;;;;;;;5072983;28;20028;-66
2023/02/26 07:48:47;;;;;;;18.98;7.85;;;;;;;;;;5073097;28;20473;-67
2023/02/26 07:51:13;;;;;;;15.73;7.45;;;;;;;;;;5054552;28;20034;-66
2023/02/26 07:53:39;;;;;;;15.65;7.32;;;;;;;;;;5054160;28;20025;-65
2023/02/26 07:56:05;;;;;;;17.88;8.02;;;;;;;;;;5055219;28;20074;-66
2023/02/26 07:58:31;;;;;;;17.27;7.57;;;;;;;;;;5072845;28;20025;-66
2023/02/26 08:00:58;;;;;;;19.92;9.52;;;;;;;;;;5073162;28;20028;-66
2023/02/26 08:03:24;;;;;;;17.05;7.53;;;;;;;;;;5071224;28;20024;-66
2023/02/26 08:05:50;;;;;;;15.60;7.55;;;;;;;;;;5072563;28;20086;-66
2023/02/26 08:08:16;;;;;;;14.55;7.40;;;;;;;;;;5054233;28;20043;-65
2023/02/26 08:10:42;;;;;;;15.70;8.95;;;;;;;;;;5072583;28;20079;-66
2023/02/26 08:13:08;;;;;;;15.43;7.68;;;;;;;;;;5071803;28;20047;-66
2023/02/26 08:15:34;;;;;;;14.68;7.35;;;;;;;;;;5054509;28;20025;-66
2023/02/26 08:18:00;;;;;;;16.40;7.22;;;;;;;;;;5072718;28;20028;-65
2023/02/26 08:20:26;;;;;;;25.02;7.45;;;;;;;;;;5072469;28;20099;-66
2023/02/26 08:22:52;;;;;;;13.82;7.22;;;;;;;;;;5072841;28;20032;-66
2023/02/26 08:25:18;;;;;;;19.92;8.45;;;;;;;;;;5072063;28;20038;-65
2023/02/26 08:27:44;;;;;;;13.50;7.05;;;;;;;;;;5072389;28;20024;-65
2023/02/26 08:30:10;;;;;;;13.85;7.50;;;;;;;;;;5072393;28;20040;-65
2023/02/26 08:32:38;;;;;;;15.57;7.75;;;;;;;;;;5054525;28;20029;-65
2023/02/26 08:35:04;;;;;;;14.45;7.18;;;;;;;;;;5071980;28;20021;-66
2023/02/26 08:37:30;;;;;;;15.15;7.13;;;;;;;;;;5054011;28;20035;-65
2023/02/26 08:39:56;;;;;;;14.73;7.93;;;;;;;;;;5054063;28;20040;-66
2023/02/26 08:42:22;;;;;;;15.10;7.65;;;;;;;;;;5070838;28;20051;-66
2023/02/26 08:44:48;;;;;;;15.75;7.45;;;;;;;;;;5069994;28;20029;-65
2023/02/26 08:47:14;;;;;;;16.85;7.30;;;;;;;;;;5052509;28;20028;-63
2023/02/26 08:49:40;;;;;;;14.73;8.18;;;;;;;;;;5070250;28;20033;-63
2023/02/26 08:52:06;;;;;;;17.40;7.43;;;;;;;;;;5052480;28;20454;-63
2023/02/26 08:54:32;;;;;;;17.23;7.53;;;;;;;;;;5069611;28;20428;-64
2023/02/26 08:56:58;;;;;;;15.82;8.43;;;;;;;;;;5071441;28;20055;-62
2023/02/26 08:59:24;;;;;;;15.35;7.20;;;;;;;;;;5053807;28;20029;-60
2023/02/26 09:01:50;;;;;;;26.70;14.25;;;;;;;;;;5071507;28;20035;-61
2023/02/26 09:04:16;;;;;;;13.65;7.40;;;;;;;;;;5070648;28;20072;-61
2023/02/26 09:06:42;;;;;;;14.10;7.20;;;;;;;;;;5071046;28;20513;-59
2023/02/26 09:09:08;;;;;;;17.67;7.13;;;;;;;;;;5053496;28;20025;-62
2023/02/26 09:11:35;;;;;;;13.27;6.75;;;;;;;;;;5053836;28;20564;-61
2023/02/26 09:14:02;;;;;;;14.90;8.13;;;;;;;;;;5070723;28;20440;-62
2023/02/26 09:16:28;;;;;;;14.98;7.38;;;;;;;;;;5053347;28;20031;-62
2023/02/26 09:18:55;;;;;;;14.05;7.32;;;;;;;;;;5053520;28;20190;-62
2023/02/26 09:21:21;;;;;;;16.70;7.88;;;;;;;;;;5071274;28;20033;-62
2023/02/26 09:23:47;;;;;;;35.30;19.33;;;;;;;;;;5070939;28;20087;-62
2023/02/26 09:26:14;;;;;;;22.70;12.70;;;;;;;;;;5071344;28;20161;-62
2023/02/26 09:28:40;;;;;;;17.33;7.78;;;;;;;;;;5071346;28;20028;-62
2023/02/26 09:31:06;;;;;;;21.50;9.82;;;;;;;;;;5053493;28;20171;-62
2023/02/26 09:33:32;;;;;;;16.15;8.07;;;;;;;;;;5070702;28;20052;-62
2023/02/26 09:35:58;;;;;;;15.77;7.25;;;;;;;;;;5071774;28;20025;-62
2023/02/26 09:38:24;;;;;;;15.40;7.28;;;;;;;;;;5053308;28;20021;-62
2023/02/26 09:40:50;;;;;;;15.00;7.53;;;;;;;;;;5071383;28;20116;-61
2023/02/26 09:43:29;;;;;;;13.80;7.15;;;;;;;;;;5070425;28;20067;-63
2023/02/26 09:45:55;;;;;;;;;;;;;;;;;;5068650;28;20092;-61
2023/02/26 09:48:23;;;;;;;16.33;7.13;;;;;;;;;;5070950;28;19950;-62
2023/02/26 09:50:54;;;;;;;17.10;8.23;;;;;;;;;;5053188;28;20074;-61
2023/02/26 09:53:22;;;;;;;14.10;7.30;;;;;;;;;;5052979;28;20032;-64
2023/02/26 09:55:49;;;;;;;15.07;7.53;;;;;;;;;;5068852;28;20021;-63
2023/02/26 09:58:28;;;;;;;14.57;7.13;;;;;;;;;;5066532;28;20437;-62
2023/02/26 10:00:54;;;;;;;14.13;7.40;;;;;;;;;;5052564;28;20036;-63
2023/02/26 10:03:39;;;;;;;15.05;7.32;;;;;;;;;;5051858;28;20023;-63
2023/02/26 10:06:20;;;;;;;14.80;7.32;;;;;;;;;;5032966;28;20087;-62
2023/02/26 10:08:52;;;;;;;14.88;7.45;;;;;;;;;;5050596;28;20120;-62
2023/02/26 10:11:21;;;;;;;14.60;7.30;;;;;;;;;;5032800;28;20390;-61
2023/02/26 10:13:53;;;;;;;15.05;7.03;;;;;;;;;;5033774;28;20047;-65
2023/02/26 10:16:24;;;;;;;13.98;7.28;;;;;;;;;;5062179;28;20509;-65
2023/02/26 10:19:11;;;;;;;14.02;7.40;;;;;;;;;;5070450;28;20467;-64
2023/02/26 10:21:37;;;;;;;15.30;7.40;;;;;;;;;;5070158;28;20485;-65
2023/02/26 10:24:10;;;;;;;13.43;7.30;;;;;;;;;;5051716;28;20058;-66
2023/02/26 10:26:39;;;;;;;14.77;7.70;;;;;;;;;;5069740;28;20021;-66
2023/02/26 10:29:21;;;;;;;15.35;7.82;;;;;;;;;;5070266;28;20074;-66
2023/02/26 10:32:06;;;;;;;14.23;7.45;;;;;;;;;;5070451;28;20044;-65
2023/02/26 10:34:50;;;;;;;17.55;9.85;;;;;;;;;;5051403;28;20370;-64
2023/02/26 10:37:19;;;;;;;17.90;9.85;;;;;;;;;;5070139;28;20029;-66
2023/02/26 10:39:45;;;;;;;15.82;8.30;;;;;;;;;;5052417;28;20444;-66
2023/02/26 10:42:22;;;;;;;15.95;8.20;;;;;;;;;;5052238;28;20507;-65
2023/02/26 10:45:05;;;;;;;15.65;8.38;;;;;;;;;;5069492;28;20453;-65
2023/02/26 10:47:37;;;;;;;14.82;8.10;;;;;;;;;;5070118;28;20031;-66
2023/02/26 10:50:10;;;;;;;15.85;8.60;;;;;;;;;;5069821;28;20033;-65
2023/02/26 10:52:36;;;;;;;14.73;8.50;;;;;;;;;;5051757;28;20017;-66
2023/02/26 10:55:14;;;;;;;13.60;7.97;;;;;;;;;;5068583;28;20070;-65
2023/02/26 10:57:42;;;;;;;13.73;7.85;;;;;;;;;;5069376;28;20536;-64
2023/02/26 11:00:16;;;;;;;16.27;9.05;;;;;;;;;;5052601;28;20476;-67
2023/02/26 11:02:44;;;;;;;13.70;7.75;;;;;;;;;;5069893;28;20431;-64
2023/02/26 11:05:18;;;;;;;13.20;7.47;;;;;;;;;;5069150;28;20116;-69
2023/02/26 11:07:45;;;;;;;14.30;7.88;;;;;;;;;;5069688;28;20411;-65
2023/02/26 11:10:15;;;;;;;13.65;7.47;;;;;;;;;;5069745;28;20025;-66
2023/02/26 11:12:41;;;;;;;15.48;8.00;;;;;;;;;;5051845;28;20080;-65
2023/02/26 11:15:12;;;;;;;15.75;8.32;;;;;;;;;;5068964;28;20021;-65
2023/02/26 11:17:38;;;;;;;15.48;8.18;;;;;;;;;;5069602;28;20395;-66
2023/02/26 11:20:16;;;;;;;17.48;8.13;;;;;;;;;;5069549;28;20024;-66
2023/02/26 11:22:45;;;;;;;14.57;8.10;;;;;;;;;;5051737;28;20029;-65
2023/02/26 11:25:13;;;;;;;14.20;7.82;;;;;;;;;;5068980;28;20271;-65
2023/02/26 11:27:40;;;;;;;14.68;8.32;;;;;;;;;;5051626;28;20020;-65
2023/02/26 11:30:10;;;;;;;14.85;8.50;;;;;;;;;;5051543;28;20071;-65
2023/02/26 11:32:38;;;;;;;14.10;8.00;;;;;;;;;;5069893;28;20025;-66
2023/02/26 11:35:07;;;;;;;16.15;8.13;;;;;;;;;;5068945;28;20481;-65
2023/02/26 11:37:47;;;;;;;14.98;8.13;;;;;;;;;;5069470;28;20415;-64
2023/02/26 11:40:13;;;;;;;14.93;8.30;;;;;;;;;;5073310;28;20032;-65
2023/02/26 11:42:43;;;;;;;15.48;8.60;;;;;;;;;;5073350;28;20531;-65
2023/02/26 11:45:13;;;;;;;13.48;7.95;;;;;;;;;;5072799;28;20064;-65
2023/02/26 11:47:40;;;;;;;15.88;8.27;;;;;;;;;;5072872;28;20488;-65
2023/02/26 11:50:13;;;;;;;14.25;8.13;;;;;;;;;;5055178;28;20028;-65
2023/02/26 11:52:40;;;;;;;15.50;8.52;;;;;;;;;;5055182;28;20020;-66
2023/02/26 11:55:25;;;;;;;14.80;8.90;;;;;;;;;;5072301;28;20032;-65
2023/02/26 11:57:55;;;;;;;15.10;9.23;;;;;;;;;;5072818;28;20029;-65
2023/02/26 12:00:32;;;;;;;16.30;10.32;;;;;;;;;;5072529;28;20027;-65
2023/02/26 12:03:06;;;;;;;15.65;9.38;;;;;;;;;;5054286;28;20551;-65
2023/02/26 12:05:33;;;;;;;14.18;8.93;;;;;;;;;;5054399;28;20056;-65
2023/02/26 12:07:59;;;;;;;15.02;8.82;;;;;;;;;;5087729;22;20057;-67
2023/02/26 12:10:29;;;;;;;14.70;8.32;;;;;;;;;;5052936;28;20033;-65
2023/02/26 12:13:01;;;;;;;16.65;9.82;;;;;;;;;;5054173;28;20075;-63
2023/02/26 12:15:54;;;;;;;14.98;8.82;;;;;;;;;;5052853;28;20029;-65
2023/02/26 12:18:37;;;;;;;16.17;8.95;;;;;;;;;;5051327;28;20493;-65
2023/02/26 12:21:03;;;;;;;18.77;9.48;;;;;;;;;;5045016;28;20103;-66
2023/02/26 12:23:30;;;;;;;14.55;8.77;;;;;;;;;;5061696;28;20488;-65
2023/02/26 12:26:01;;;;;;;14.88;9.10;;;;;;;;;;5045312;28;20033;-66
2023/02/26 12:28:30;;;;;;;14.27;9.15;;;;;;;;;;5069768;28;20028;-66
2023/02/26 12:30:59;;;;;;;14.20;9.30;;;;;;;;;;5054444;28;20053;-62
2023/02/26 12:33:31;;;;;;;14.32;9.00;;;;;;;;;;5053349;28;20547;-66
2023/02/26 12:36:04;;;;;;;17.95;9.48;;;;;;;;;;5036555;28;20025;-66
2023/02/26 12:38:30;;;;;;;15.65;9.05;;;;;;;;;;5037523;28;20021;-66
2023/02/26 12:41:10;;;;;;;14.43;8.98;;;;;;;;;;5057576;28;20025;-67
2023/02/26 12:43:42;;;;;;;14.82;9.23;;;;;;;;;;5036392;28;20116;-67
2023/02/26 12:46:16;;;;;;;16.05;9.40;;;;;;;;;;5036338;28;20029;-67
2023/02/26 12:48:42;;;;;;;15.00;9.30;;;;;;;;;;5036030;28;20040;-67
2023/02/26 12:51:19;;;;;;;14.43;9.32;;;;;;;;;;5053194;28;20029;-66
2023/02/26 12:54:03;;;;;;;15.30;9.40;;;;;;;;;;5053130;28;20439;-67
2023/02/26 12:56:29;;;;;;;15.20;8.93;;;;;;;;;;5053751;28;20071;-66
2023/02/26 12:58:58;;;;;;;15.23;9.10;;;;;;;;;;5035918;28;20424;-67
2023/02/26 13:01:36;;;;;;;16.35;9.90;;;;;;;;;;5053017;28;20100;-67
2023/02/26 13:04:02;;;;;;;14.90;8.98;;;;;;;;;;5052862;28;20032;-65
2023/02/26 13:06:40;;;;;;;15.65;9.13;;;;;;;;;;5053904;28;20032;-65
2023/02/26 13:09:18;;;;;;;15.10;9.50;;;;;;;;;;5053638;28;20029;-64
2023/02/26 13:11:44;;;;;;;14.75;9.30;;;;;;;;;;5051990;28;20100;-65
2023/02/26 13:14:13;;;;;;;16.70;9.43;;;;;;;;;;5035189;28;20496;-65
2023/02/26 13:16:39;;;;;;;17.23;9.27;;;;;;;;;;5035385;28;20025;-65
2023/02/26 13:19:05;;;;;;;14.95;8.90;;;;;;;;;;5053291;28;20017;-67
2023/02/26 13:21:41;;;;;;;16.17;9.52;;;;;;;;;;5035162;28;20504;-66
2023/02/26 13:24:15;;;;;;;16.67;9.38;;;;;;;;;;5034732;28;20064;-66
2023/02/26 13:26:42;;;;;;;15.32;9.15;;;;;;;;;;5053408;28;20025;-67
2023/02/26 13:29:11;;;;;;;16.27;9.43;;;;;;;;;;5052959;28;20044;-66
2023/02/26 13:31:46;;;;;;;15.95;9.52;;;;;;;;;;5053037;28;20041;-65
2023/02/26 13:34:19;;;;;;;14.57;9.43;;;;;;;;;;5052202;28;20031;-66
2023/02/26 13:36:45;;;;;;;15.20;9.45;;;;;;;;;;5035289;28;20044;-64
2023/02/26 13:39:30;;;;;;;15.52;9.50;;;;;;;;;;5052777;28;20064;-66
2023/02/26 13:42:02;;;;;;;15.77;10.07;;;;;;;;;;5035156;28;20112;-67
2023/02/26 13:44:37;;;;;;;16.08;10.30;;;;;;;;;;5052083;28;20017;-67
2023/02/26 13:47:10;;;;;;;16.08;10.20;;;;;;;;;;5052807;28;20025;-65
2023/02/26 13:49:49;;;;;;;14.40;9.60;;;;;;;;;;5034799;28;20029;-66
2023/02/26 13:52:29;;;;;;;15.02;9.80;;;;;;;;;;5052545;28;20021;-66
2023/02/26 13:54:58;;;;;;;14.90;9.80;;;;;;;;;;5052161;28;20021;-66
2023/02/26 13:57:33;;;;;;;14.30;9.18;;;;;;;;;;5052703;28;20481;-66
2023/02/26 14:00:17;;;;;;;15.40;9.52;;;;;;;;;;5052949;28;20040;-66
2023/02/26 14:02:43;;;;;;;15.02;9.45;;;;;;;;;;5033441;28;20064;-66
2023/02/26 14:05:27;;;;;;;16.67;9.77;;;;;;;;;;5033571;28;20033;-65
2023/02/26 14:07:54;;;;;;;16.08;9.63;;;;;;;;;;5052433;28;20071;-66
2023/02/26 14:10:23;;;;;;;14.55;9.50;;;;;;;;;;5034448;28;20032;-66
2023/02/26 14:13:01;;;;;;;14.77;10.00;;;;;;;;;;5051065;28;20029;-66
2023/02/26 14:15:31;;;;;;;14.40;9.25;;;;;;;;;;5034730;28;20025;-66
2023/02/26 14:18:01;;;;;;;15.13;10.02;;;;;;;;;;5034459;28;20025;-67
2023/02/26 14:20:28;;;;;;;14.75;9.68;;;;;;;;;;5052098;28;20082;-64
2023/02/26 14:23:08;;;;;;;14.60;9.40;;;;;;;;;;5034198;28;20031;-64
2023/02/26 14:25:48;;;;;;;14.60;9.73;;;;;;;;;;5034360;28;20033;-66
2023/02/26 14:28:40;;;;;;;15.88;9.98;;;;;;;;;;5025031;28;20072;-66
2023/02/26 14:31:18;;;;;;;16.10;9.93;;;;;;;;;;4660003;28;10000246;-67
2023/02/26 14:33:44;;;;;;;15.98;10.13;;;;;;;;;;5045402;28;20013;-67
2023/02/26 14:36:15;;;;;;;16.05;9.85;;;;;;;;;;5045848;28;20081;-68
2023/02/26 14:38:43;;;;;;;14.95;9.60;;;;;;;;;;5059312;28;20059;-66
2023/02/26 14:41:17;;;;;;;15.68;10.10;;;;;;;;;;5030326;28;20029;-66
2023/02/26 14:43:45;;;;;;;14.68;9.55;;;;;;;;;;5032126;28;20022;-69
2023/02/26 14:46:12;;;;;;;16.92;9.95;;;;;;;;;;5043158;28;20021;-67